Time;durP1;ratioP1;P1;durP2;ratioP2;P2;SDS_P1;SDS_P2;PMS_P1;PMS_P2;Temp;Humidity;BMP_temperature;BMP_pressure;BME280_temperature;BME280_humidity;BME280_pressure;Samples;Min_cycle;Max_cycle;Signal;HPM_P1;HPM_P2
2023/07/09 00:02:01;;;;;;;6.07;4.65;;;;;;;21.44;45.84;101410.38;7398345;19;20082;-68
2023/07/09 00:04:33;;;;;;;4.88;4.38;;;;;;;21.40;45.68;101406.16;7395925;19;20031;-68
2023/07/09 00:07:04;;;;;;;11.77;4.57;;;;;;;21.35;46.38;101418.91;7396127;19;20090;-68
2023/07/09 00:09:33;;;;;;;7.28;4.32;;;;;;;21.27;46.35;101409.53;7395721;19;20026;-68
2023/07/09 00:12:02;;;;;;;7.30;4.50;;;;;;;21.23;46.66;101423.13;7395627;19;20018;-67
2023/07/09 00:14:30;;;;;;;6.47;4.55;;;;;;;21.16;46.84;101425.28;7395449;19;20018;-67
2023/07/09 00:16:59;;;;;;;7.30;4.65;;;;;;;21.11;46.59;101422.00;7394793;19;20423;-68
2023/07/09 00:19:29;;;;;;;6.28;4.82;;;;;;;21.05;47.17;101414.34;7395402;19;20136;-68
2023/07/09 00:22:00;;;;;;;11.82;5.95;;;;;;;20.99;46.94;101424.41;7394764;19;20010;-67
2023/07/09 00:24:29;;;;;;;10.00;6.57;;;;;;;20.90;47.19;101416.91;7395885;19;20086;-67
2023/07/09 00:26:57;;;;;;;8.13;6.80;;;;;;;20.85;47.59;101421.63;7395695;19;20030;-68
2023/07/09 00:29:26;;;;;;;10.43;5.47;;;;;;;20.78;48.00;101417.59;7396752;19;20026;-68
2023/07/09 00:31:54;;;;;;;5.97;5.35;;;;;;;20.72;48.08;101415.25;7395432;19;20074;-67
2023/07/09 00:34:24;;;;;;;5.57;4.32;;;;;;;20.67;48.00;101405.66;7395404;19;20035;-69
2023/07/09 00:37:02;;;;;;;5.57;4.65;;;;;;;20.62;48.09;101417.50;7395237;19;20027;-68
2023/07/09 00:39:30;;;;;;;5.47;4.32;;;;;;;20.56;48.18;101421.38;7409925;19;20014;-68
2023/07/09 00:41:59;;;;;;;4.88;4.22;;;;;;;20.51;48.44;101413.59;7419596;19;20495;-68
2023/07/09 00:44:33;;;;;;;6.50;4.50;;;;;;;20.46;48.53;101414.78;7417376;19;20022;-68
2023/07/09 00:47:20;;;;;;;5.43;4.20;;;;;;;20.44;49.13;101412.19;7416833;19;20011;-68
2023/07/09 00:49:50;;;;;;;5.13;4.30;;;;;;;20.41;49.04;101408.84;7401837;19;20018;-68
2023/07/09 00:52:32;;;;;;;5.13;4.05;;;;;;;20.39;49.37;101410.75;7394495;19;20015;-67
2023/07/09 00:55:04;;;;;;;5.50;4.30;;;;;;;20.36;49.20;101409.09;7394426;19;20023;-68
2023/07/09 00:57:33;;;;;;;5.15;3.85;;;;;;;20.32;49.09;101404.84;7394739;19;20018;-67
2023/07/09 01:00:09;;;;;;;4.85;4.35;;;;;;;20.27;49.30;101405.09;7394334;19;20022;-68
2023/07/09 01:02:38;;;;;;;5.13;4.40;;;;;;;20.23;49.79;101400.84;7394278;19;20014;-67
2023/07/09 01:05:07;;;;;;;6.40;4.47;;;;;;;20.18;49.88;101397.56;7393868;19;20022;-68
2023/07/09 01:07:38;;;;;;;5.15;4.38;;;;;;;20.13;50.01;101402.28;7395641;19;20035;-68
2023/07/09 01:10:14;;;;;;;5.05;4.40;;;;;;;20.08;49.92;101396.34;7393558;19;20014;-68
2023/07/09 01:12:43;;;;;;;6.32;4.25;;;;;;;20.01;50.27;101396.66;7391923;19;20024;-66
2023/07/09 01:15:14;;;;;;;6.22;4.15;;;;;;;19.98;50.11;101399.47;7391878;19;20035;-67
2023/07/09 01:17:44;;;;;;;4.72;4.13;;;;;;;19.95;50.60;101396.09;7395001;19;20015;-67
2023/07/09 01:20:20;;;;;;;7.35;4.47;;;;;;;19.91;50.86;101400.72;7395293;19;20023;-67
2023/07/09 01:22:56;;;;;;;7.63;4.50;;;;;;;19.86;50.44;101402.75;7394484;19;20604;-67
2023/07/09 01:25:26;;;;;;;5.18;4.10;;;;;;;19.83;50.47;101398.44;7395544;19;20018;-67
2023/07/09 01:27:54;;;;;;;5.50;4.90;;;;;;;19.78;50.98;101400.44;7394966;19;20046;-67
2023/07/09 01:30:28;;;;;;;7.32;4.78;;;;;;;19.73;51.00;101396.28;7394015;19;20481;-67
2023/07/09 01:33:00;;;;;;;6.80;5.05;;;;;;;19.68;51.21;101404.50;7395102;19;20041;-68
2023/07/09 01:35:31;;;;;;;5.50;4.25;;;;;;;19.62;51.25;101399.50;7399408;19;20370;-67
2023/07/09 01:38:03;;;;;;;6.00;4.70;;;;;;;19.56;51.55;101405.97;7400093;19;20074;-67
2023/07/09 01:40:32;;;;;;;6.70;4.97;;;;;;;19.48;51.45;101402.84;7399668;19;20033;-67
2023/07/09 01:43:01;;;;;;;6.50;4.32;;;;;;;19.43;51.97;101399.53;7401824;19;20026;-67
2023/07/09 01:45:32;;;;;;;6.45;4.60;;;;;;;19.40;52.04;101405.00;7402024;19;20018;-67
2023/07/09 01:48:01;;;;;;;4.72;4.20;;;;;;;19.37;52.31;101398.00;7402691;19;20094;-66
2023/07/09 01:50:29;;;;;;;6.28;4.88;;;;;;;19.34;52.29;101404.34;7399179;19;20035;-66
2023/07/09 01:52:59;;;;;;;6.05;4.35;;;;;;;19.30;52.66;101410.75;7401499;19;20022;-68
2023/07/09 01:55:31;;;;;;;5.20;4.75;;;;;;;19.27;52.61;101399.41;7401649;19;20010;-66
2023/07/09 01:57:59;;;;;;;6.05;4.72;;;;;;;19.23;53.00;101404.00;7401532;19;20043;-67
2023/07/09 02:00:28;;;;;;;4.95;4.45;;;;;;;19.17;53.20;101404.28;7398996;19;20070;-67
2023/07/09 02:02:57;;;;;;;7.82;4.82;;;;;;;19.12;53.30;101401.00;7398497;19;20015;-67
2023/07/09 02:05:26;;;;;;;5.70;4.95;;;;;;;19.07;53.61;101411.88;7401731;19;20019;-67
2023/07/09 02:07:55;;;;;;;6.72;5.40;;;;;;;19.02;53.68;101406.75;7401124;19;20019;-66
2023/07/09 02:10:23;;;;;;;11.13;5.60;;;;;;;18.96;53.77;101407.03;7400306;19;20011;-67
2023/07/09 02:12:54;;;;;;;6.18;5.57;;;;;;;18.92;53.95;101409.91;7398441;19;20022;-67
2023/07/09 02:15:23;;;;;;;15.40;6.30;;;;;;;18.87;54.09;101407.44;7401680;19;20022;-66
2023/07/09 02:17:52;;;;;;;6.10;5.22;;;;;;;18.82;54.25;101415.63;7401170;19;20019;-66
2023/07/09 02:20:21;;;;;;;7.10;6.07;;;;;;;18.79;54.35;101409.56;7401148;19;20018;-65
2023/07/09 02:22:53;;;;;;;7.60;4.55;;;;;;;18.73;54.39;101406.25;7400667;19;20018;-67
2023/07/09 02:25:21;;;;;;;5.50;4.90;;;;;;;18.71;55.00;101408.13;7397964;19;20015;-67
2023/07/09 02:27:49;;;;;;;7.22;5.00;;;;;;;18.71;55.10;101410.78;7400871;19;20026;-66
2023/07/09 02:30:21;;;;;;;6.32;4.68;;;;;;;18.72;54.87;101424.94;7398509;19;20015;-66
2023/07/09 02:32:49;;;;;;;6.45;4.88;;;;;;;18.70;54.85;101414.38;7400110;19;20023;-67
2023/07/09 02:35:18;;;;;;;6.18;5.60;;;;;;;18.68;55.30;101418.06;7398069;19;20023;-66
2023/07/09 02:37:46;;;;;;;5.70;5.15;;;;;;;18.63;55.38;101422.72;7400579;19;20014;-66
2023/07/09 02:40:16;;;;;;;5.72;5.10;;;;;;;18.60;55.53;101421.03;7397576;19;20404;-66
2023/07/09 02:42:44;;;;;;;8.73;6.00;;;;;;;18.57;55.92;101421.19;7400247;19;20022;-66
2023/07/09 02:45:13;;;;;;;5.25;4.40;;;;;;;18.56;55.57;101415.00;7400332;19;20026;-66
2023/07/09 02:47:44;;;;;;;7.85;5.20;;;;;;;18.54;55.98;101408.03;7397825;19;20026;-66
2023/07/09 02:50:13;;;;;;;6.28;5.03;;;;;;;18.53;56.23;101404.50;7397957;19;20015;-66
2023/07/09 02:52:42;;;;;;;5.13;4.60;;;;;;;18.51;55.72;101408.16;7399924;19;20072;-67
2023/07/09 02:55:11;;;;;;;7.85;5.50;;;;;;;18.47;55.82;101410.09;7397556;19;20041;-66
2023/07/09 02:57:39;;;;;;;5.88;5.03;;;;;;;18.47;55.99;101414.56;7397537;19;20035;-66
2023/07/09 03:00:09;;;;;;;6.25;5.22;;;;;;;18.42;55.96;101409.44;7399820;19;20023;-66
2023/07/09 03:02:38;;;;;;;8.23;5.38;;;;;;;18.38;56.46;101408.69;7399714;19;20035;-67
2023/07/09 03:05:10;;;;;;;5.38;4.88;;;;;;;18.35;56.35;101414.16;7399835;19;20018;-67
2023/07/09 03:07:39;;;;;;;7.30;5.70;;;;;;;18.34;56.30;101408.91;7399393;19;20021;-66
2023/07/09 03:10:08;;;;;;;6.45;5.57;;;;;;;18.30;56.36;101407.31;7399636;19;20023;-67
2023/07/09 03:12:43;;;;;;;7.22;5.97;;;;;;;18.28;56.99;101414.50;7399197;19;20036;-68
2023/07/09 03:15:12;;;;;;;7.22;5.60;;;;;;;18.24;56.88;101416.41;7397115;19;20031;-67
2023/07/09 03:17:41;;;;;;;7.75;5.57;;;;;;;18.20;56.94;101409.53;7399310;19;20031;-67
2023/07/09 03:20:14;;;;;;;6.57;5.60;;;;;;;18.17;57.16;101417.59;7399072;19;20039;-66
2023/07/09 03:22:42;;;;;;;7.07;5.80;;;;;;;18.13;57.35;101413.38;7399504;19;20085;-67
2023/07/09 03:25:11;;;;;;;8.57;6.13;;;;;;;18.12;57.16;101419.59;7399132;19;20020;-67
2023/07/09 03:27:39;;;;;;;8.73;5.75;;;;;;;18.11;57.69;101423.19;7398626;19;20011;-67
2023/07/09 03:30:09;;;;;;;7.72;6.68;;;;;;;18.12;57.63;101430.22;7398621;19;20510;-67
2023/07/09 03:32:37;;;;;;;9.70;6.80;;;;;;;18.13;57.48;101422.19;7396155;19;20370;-68
2023/07/09 03:35:06;;;;;;;7.70;6.38;;;;;;;18.16;57.54;101429.16;7398331;19;20079;-67
2023/07/09 03:37:37;;;;;;;6.75;5.90;;;;;;;18.17;57.73;101426.44;7397813;19;20018;-67
2023/07/09 03:40:07;;;;;;;5.85;5.25;;;;;;;18.17;57.74;101430.88;7398993;19;20036;-67
2023/07/09 03:42:36;;;;;;;7.07;5.95;;;;;;;18.16;57.69;101429.16;7395970;19;20445;-66
2023/07/09 03:45:04;;;;;;;9.40;6.32;;;;;;;18.15;57.66;101433.63;7397770;19;20386;-67
2023/07/09 03:47:32;;;;;;;7.45;6.47;;;;;;;18.13;58.05;101431.94;7398214;19;20015;-67
2023/07/09 03:50:01;;;;;;;7.63;6.45;;;;;;;18.13;57.90;101432.81;7397943;19;20078;-67
2023/07/09 03:52:30;;;;;;;9.88;7.72;;;;;;;18.15;57.85;101441.56;7396047;19;20029;-67
2023/07/09 03:55:03;;;;;;;9.05;8.25;;;;;;;18.18;58.24;101437.94;7396431;19;20022;-66
2023/07/09 03:57:32;;;;;;;9.95;8.95;;;;;;;18.21;57.92;101440.44;7394027;19;20015;-67
2023/07/09 04:00:00;;;;;;;9.73;8.73;;;;;;;18.23;57.69;101433.28;7397312;19;20471;-66
2023/07/09 04:02:29;;;;;;;9.05;8.13;;;;;;;18.26;58.13;101433.16;7397686;19;20070;-67
2023/07/09 04:04:57;;;;;;;10.98;8.65;;;;;;;18.29;58.16;101433.00;7395485;19;20070;-67
2023/07/09 04:07:25;;;;;;;10.30;9.10;;;;;;;18.32;57.60;101424.91;7397185;19;20082;-67
2023/07/09 04:09:54;;;;;;;11.43;9.50;;;;;;;18.36;58.11;101422.97;7397475;19;20018;-67
2023/07/09 04:12:25;;;;;;;10.43;9.40;;;;;;;18.39;57.80;101434.34;7395148;19;20019;-66
2023/07/09 04:14:54;;;;;;;11.55;9.25;;;;;;;18.45;57.74;101440.31;7395333;19;20006;-67
2023/07/09 04:17:23;;;;;;;10.30;9.30;;;;;;;18.49;57.65;101434.81;7397373;19;20038;-67
2023/07/09 04:19:52;;;;;;;9.48;8.55;;;;;;;18.53;57.38;101428.41;7397225;19;20054;-68
2023/07/09 04:22:21;;;;;;;10.32;8.80;;;;;;;18.56;57.47;101432.72;7397094;19;20092;-67
2023/07/09 04:24:50;;;;;;;12.32;8.85;;;;;;;18.57;57.63;101434.47;7395431;19;20022;-67
2023/07/09 04:27:18;;;;;;;9.52;8.20;;;;;;;18.60;57.73;101429.00;7397113;19;20022;-67
2023/07/09 04:29:50;;;;;;;12.57;10.75;;;;;;;18.64;57.59;101427.94;7396933;19;20083;-67
2023/07/09 04:32:18;;;;;;;14.10;11.07;;;;;;;18.67;57.78;101425.13;7395457;19;20022;-66
2023/07/09 04:34:47;;;;;;;37.72;26.13;;;;;;;18.70;57.42;101430.34;7395143;19;20019;-67
2023/07/09 04:37:16;;;;;;;12.55;11.25;;;;;;;18.75;57.40;101423.94;7396434;19;20021;-67
2023/07/09 04:39:45;;;;;;;8.68;7.72;;;;;;;18.79;57.18;101425.53;7396694;19;20019;-66
2023/07/09 04:42:15;;;;;;;10.65;8.10;;;;;;;18.83;57.34;101424.44;7396542;19;20093;-67
2023/07/09 04:44:44;;;;;;;8.30;7.45;;;;;;;18.86;57.46;101425.16;7395051;19;20022;-67
2023/07/09 04:47:15;;;;;;;7.35;6.65;;;;;;;18.90;57.15;101428.59;7396245;19;20085;-66
2023/07/09 04:49:44;;;;;;;8.75;7.45;;;;;;;18.95;57.34;101426.56;7394780;19;20021;-67
2023/07/09 04:52:14;;;;;;;7.72;7.05;;;;;;;18.99;56.82;101424.63;7395205;19;20078;-67
2023/07/09 04:54:44;;;;;;;8.35;7.50;;;;;;;19.02;56.72;101427.19;7394578;19;20092;-67
2023/07/09 04:57:13;;;;;;;7.22;6.55;;;;;;;19.07;56.83;101430.47;7396192;19;20022;-67
2023/07/09 04:59:41;;;;;;;7.70;6.90;;;;;;;19.11;56.93;101428.50;7395610;19;20390;-67
2023/07/09 05:02:10;;;;;;;8.20;7.40;;;;;;;19.16;56.24;101427.38;7395662;19;20035;-66
2023/07/09 05:04:41;;;;;;;8.82;7.07;;;;;;;19.21;56.71;101430.69;7394353;19;20081;-66
2023/07/09 05:07:10;;;;;;;7.32;6.57;;;;;;;19.27;56.68;101426.88;7395487;19;20489;-66
2023/07/09 05:09:38;;;;;;;7.63;6.72;;;;;;;19.31;56.00;101428.47;7391340;19;20069;-66
2023/07/09 05:12:08;;;;;;;10.75;7.40;;;;;;;19.36;56.36;101429.09;7395721;19;20086;-67
2023/07/09 05:14:36;;;;;;;8.73;7.25;;;;;;;19.42;56.13;101424.41;7393695;19;20085;-66
2023/07/09 05:17:06;;;;;;;8.73;7.82;;;;;;;19.48;55.96;101429.44;7395446;19;20022;-67
2023/07/09 05:19:35;;;;;;;10.60;9.40;;;;;;;19.54;56.31;101431.81;7393844;19;20042;-66
2023/07/09 05:22:07;;;;;;;10.48;7.57;;;;;;;19.59;55.88;101429.78;7394724;19;20086;-66
2023/07/09 05:24:35;;;;;;;8.07;7.28;;;;;;;19.64;55.97;101433.06;7394079;19;20443;-66
2023/07/09 05:27:03;;;;;;;8.45;7.22;;;;;;;19.70;55.40;101431.91;7395323;19;20010;-66
2023/07/09 05:29:32;;;;;;;7.60;6.65;;;;;;;19.75;55.40;101431.69;7395044;19;20077;-67
2023/07/09 05:32:00;;;;;;;8.82;6.88;;;;;;;19.81;55.73;101436.72;7394965;19;20007;-66
2023/07/09 05:34:29;;;;;;;7.72;6.93;;;;;;;19.87;55.39;101441.75;7393743;19;20018;-67
2023/07/09 05:36:57;;;;;;;7.88;6.80;;;;;;;19.92;55.54;101437.06;7395117;19;20070;-66
2023/07/09 05:39:28;;;;;;;8.57;6.32;;;;;;;19.98;55.51;101433.22;7394979;19;20019;-66
2023/07/09 05:41:57;;;;;;;10.27;6.60;;;;;;;20.05;54.99;101436.44;7392650;19;20489;-67
2023/07/09 05:44:25;;;;;;;7.47;6.75;;;;;;;20.09;55.55;101440.69;7393398;19;20078;-67
2023/07/09 05:46:53;;;;;;;7.50;6.80;;;;;;;20.16;55.51;101436.78;7394536;19;20082;-66
2023/07/09 05:49:22;;;;;;;8.02;7.22;;;;;;;20.22;55.10;101440.91;7394387;19;20541;-66
2023/07/09 05:51:50;;;;;;;7.50;6.80;;;;;;;20.28;55.31;101441.47;7394701;19;20022;-67
2023/07/09 05:54:19;;;;;;;8.68;6.18;;;;;;;20.35;55.15;101436.69;7392956;19;20023;-67
2023/07/09 05:56:50;;;;;;;9.38;7.20;;;;;;;20.44;54.84;101446.00;7392260;19;20014;-66
2023/07/09 05:59:18;;;;;;;6.93;6.32;;;;;;;20.50;54.96;101441.19;7394832;19;20074;-67
2023/07/09 06:01:47;;;;;;;8.23;7.07;;;;;;;20.58;54.56;101443.47;7393684;19;20025;-66
2023/07/09 06:04:16;;;;;;;6.75;6.05;;;;;;;20.66;54.34;101443.03;7392803;19;20019;-66
2023/07/09 06:06:45;;;;;;;7.45;6.28;;;;;;;20.73;53.90;101439.16;7393952;19;20497;-66
2023/07/09 06:09:15;;;;;;;7.18;6.35;;;;;;;20.82;53.66;101443.13;7391879;19;20046;-67
2023/07/09 06:11:43;;;;;;;8.73;6.50;;;;;;;20.88;53.46;101442.81;7394267;19;20018;-67
2023/07/09 06:14:16;;;;;;;9.18;6.30;;;;;;;20.97;53.69;101438.78;7392200;19;20018;-68
2023/07/09 06:16:45;;;;;;;10.25;6.38;;;;;;;21.05;53.52;101443.69;7393702;19;20021;-67
2023/07/09 06:19:13;;;;;;;8.07;6.55;;;;;;;21.13;53.21;101441.47;7394004;19;20033;-67
2023/07/09 06:21:42;;;;;;;6.43;5.80;;;;;;;21.21;53.30;101441.03;7398450;19;20037;-67
2023/07/09 06:24:11;;;;;;;9.52;6.75;;;;;;;21.27;53.51;101444.22;7399363;19;20019;-67
2023/07/09 06:26:40;;;;;;;7.10;6.43;;;;;;;21.35;52.85;101450.94;7400988;19;20023;-67
2023/07/09 06:29:08;;;;;;;9.30;7.10;;;;;;;21.44;53.36;101445.06;7400740;19;20094;-66
2023/07/09 06:31:40;;;;;;;8.57;6.93;;;;;;;21.51;53.41;101446.47;7398256;19;20029;-67
2023/07/09 06:34:09;;;;;;;7.22;6.07;;;;;;;21.60;53.09;101450.44;7399099;19;20019;-67
2023/07/09 06:36:38;;;;;;;7.65;6.15;;;;;;;21.68;52.71;101444.66;7400800;19;20038;-67
2023/07/09 06:39:07;;;;;;;6.45;5.85;;;;;;;21.78;52.96;101448.53;7400287;19;20014;-67
2023/07/09 06:41:38;;;;;;;7.03;6.32;;;;;;;21.86;52.59;101454.25;7400253;19;20023;-67
2023/07/09 06:44:07;;;;;;;8.07;6.90;;;;;;;21.95;52.35;101453.75;7398848;19;20028;-68
2023/07/09 06:46:39;;;;;;;7.65;6.85;;;;;;;22.03;52.51;101457.78;7400085;19;20485;-67
2023/07/09 06:49:08;;;;;;;11.15;6.32;;;;;;;22.10;52.15;101461.78;7399985;19;20022;-67
2023/07/09 06:51:37;;;;;;;8.23;6.90;;;;;;;22.18;52.65;101458.66;7397175;19;20040;-68
2023/07/09 06:54:06;;;;;;;7.75;6.32;;;;;;;22.25;52.63;101466.22;7398608;19;20018;-67
2023/07/09 06:56:41;;;;;;;7.25;6.50;;;;;;;22.34;52.06;101462.13;7400104;19;20025;-66
2023/07/09 06:59:10;;;;;;;8.07;6.43;;;;;;;22.42;51.90;101467.09;7400514;19;20091;-66
2023/07/09 07:01:41;;;;;;;9.48;6.60;;;;;;;22.49;51.70;101472.91;7399558;19;20038;-66
2023/07/09 07:04:09;;;;;;;10.40;7.28;;;;;;;22.57;51.69;101471.50;7398953;19;20103;-66
2023/07/09 07:06:37;;;;;;;7.00;6.40;;;;;;;22.64;51.70;101466.63;7399720;19;20083;-66
2023/07/09 07:09:06;;;;;;;7.60;5.97;;;;;;;22.72;51.55;101466.13;7399125;19;20548;-66
2023/07/09 07:11:34;;;;;;;7.28;6.07;;;;;;;22.82;50.79;101464.59;7399225;19;20078;-66
2023/07/09 07:14:03;;;;;;;7.95;5.85;;;;;;;22.89;50.87;101463.28;7395664;19;20482;-66
2023/07/09 07:16:31;;;;;;;6.97;6.30;;;;;;;22.97;50.51;101465.47;7399386;19;20015;-66
2023/07/09 07:19:02;;;;;;;6.82;6.13;;;;;;;23.03;50.55;101465.09;7399158;19;20010;-66
2023/07/09 07:21:31;;;;;;;7.35;6.25;;;;;;;23.13;50.24;101462.69;7398844;19;20090;-66
2023/07/09 07:23:59;;;;;;;6.30;5.70;;;;;;;23.21;49.97;101464.91;7396839;19;20015;-66
2023/07/09 07:26:28;;;;;;;6.47;5.88;;;;;;;23.31;49.59;101460.69;7398967;19;20014;-66
2023/07/09 07:28:56;;;;;;;6.55;5.95;;;;;;;23.41;49.04;101467.16;7398565;19;20393;-66
2023/07/09 07:31:25;;;;;;;8.48;7.63;;;;;;;23.49;49.38;101465.81;7397814;19;20365;-66
2023/07/09 07:33:53;;;;;;;8.90;7.35;;;;;;;23.57;48.81;101467.03;7395614;19;20015;-66
2023/07/09 07:36:24;;;;;;;7.22;6.60;;;;;;;23.65;48.89;101461.16;7398311;19;20414;-66
2023/07/09 07:38:53;;;;;;;7.40;6.35;;;;;;;23.74;48.23;101459.69;7396054;19;20014;-66
2023/07/09 07:41:21;;;;;;;6.47;5.68;;;;;;;23.81;47.98;101463.69;7398353;19;20021;-66
2023/07/09 07:43:50;;;;;;;9.25;5.95;;;;;;;23.89;47.97;101458.66;7395865;19;20019;-66
2023/07/09 07:46:18;;;;;;;8.27;7.10;;;;;;;23.98;48.00;101456.38;7395615;19;20010;-66
2023/07/09 07:48:47;;;;;;;6.60;5.78;;;;;;;24.08;48.13;101457.47;7398231;19;20018;-66
2023/07/09 07:51:15;;;;;;;6.43;5.80;;;;;;;24.17;47.42;101453.31;7395179;19;20018;-65
2023/07/09 07:53:46;;;;;;;7.20;5.85;;;;;;;24.24;47.21;101454.63;7396322;19;20074;-66
2023/07/09 07:56:15;;;;;;;8.27;7.40;;;;;;;24.34;47.23;101453.00;7395521;19;20026;-65
2023/07/09 07:58:43;;;;;;;8.02;6.38;;;;;;;24.46;46.81;101455.81;7397227;19;20486;-65
2023/07/09 08:01:12;;;;;;;6.75;5.95;;;;;;;24.55;46.63;101449.78;7397416;19;20015;-66
2023/07/09 08:03:40;;;;;;;7.22;6.03;;;;;;;24.64;46.62;101450.97;7395244;19;20024;-66
2023/07/09 08:06:09;;;;;;;7.32;6.00;;;;;;;24.74;46.42;101452.06;7395081;19;20014;-66
2023/07/09 08:08:37;;;;;;;5.97;5.38;;;;;;;24.84;46.15;101446.91;7395083;19;20014;-66
2023/07/09 08:11:09;;;;;;;6.68;6.00;;;;;;;24.95;46.50;101447.00;7397045;19;20545;-67
2023/07/09 08:13:38;;;;;;;6.40;5.68;;;;;;;25.04;46.16;101443.66;7394487;19;20014;-66
2023/07/09 08:16:08;;;;;;;7.25;5.60;;;;;;;25.16;45.67;101449.97;7396866;19;20130;-66
2023/07/09 08:18:37;;;;;;;6.75;6.00;;;;;;;25.26;45.84;101450.16;7396154;19;20383;-65
2023/07/09 08:21:05;;;;;;;7.43;5.70;;;;;;;25.35;45.53;101452.19;7396374;19;20015;-66
2023/07/09 08:23:34;;;;;;;8.82;5.50;;;;;;;25.46;45.08;101445.19;7395187;19;20018;-66
2023/07/09 08:26:04;;;;;;;8.68;5.18;;;;;;;25.56;44.93;101440.00;7396040;19;20423;-66
2023/07/09 08:28:37;;;;;;;8.20;4.90;;;;;;;25.65;43.99;101440.13;7396342;19;20018;-66
2023/07/09 08:31:06;;;;;;;6.65;5.28;;;;;;;25.79;44.14;101443.63;7395536;19;20018;-66
2023/07/09 08:33:34;;;;;;;8.82;5.50;;;;;;;25.90;43.84;101432.09;7394532;19;20086;-66
2023/07/09 08:36:03;;;;;;;5.93;5.25;;;;;;;26.00;43.88;101430.41;7394848;19;20019;-66
2023/07/09 08:38:31;;;;;;;7.53;5.50;;;;;;;26.10;43.95;101434.13;7395619;19;20014;-66
2023/07/09 08:41:02;;;;;;;6.85;5.10;;;;;;;26.22;43.61;101431.47;7396885;19;20018;-66
2023/07/09 08:43:42;;;;;;;5.35;4.85;;;;;;;26.30;42.99;101435.28;7394745;19;20129;-67
2023/07/09 08:46:19;;;;;;;4.97;4.43;;;;;;;26.41;42.65;101434.44;7395802;19;20074;-67
2023/07/09 08:48:57;;;;;;;5.57;4.25;;;;;;;26.50;40.66;101433.72;7396533;19;20074;-66
2023/07/09 08:51:32;;;;;;;6.93;4.22;;;;;;;26.63;40.42;101433.59;7395785;19;20029;-66
2023/07/09 08:54:01;;;;;;;4.45;4.05;;;;;;;26.74;39.68;101429.22;7395129;19;20019;-66
2023/07/09 08:56:33;;;;;;;6.57;4.55;;;;;;;26.85;39.45;101429.22;7395982;19;20018;-67
2023/07/09 08:59:05;;;;;;;4.30;3.90;;;;;;;26.96;38.43;101425.69;7396145;19;20086;-66
2023/07/09 09:01:39;;;;;;;6.10;4.10;;;;;;;27.07;37.55;101425.66;7395404;19;20021;-67
2023/07/09 09:04:17;;;;;;;5.72;4.10;;;;;;;27.17;37.34;101417.69;7393462;19;20046;-66
2023/07/09 09:06:50;;;;;;;6.93;4.38;;;;;;;27.28;36.97;101424.88;7395764;19;20425;-66
2023/07/09 09:09:24;;;;;;;;;;;;;;;27.40;36.37;101421.22;7396691;19;20031;-66
2023/07/09 09:11:55;;;;;;;;;;;;;;;27.52;35.64;101411.25;7396836;19;19925;-66
2023/07/09 09:14:33;;;;;;;4.28;3.55;;;;;;;27.65;35.90;101419.13;7393504;19;20352;-66
2023/07/09 09:17:02;;;;;;;5.82;4.22;;;;;;;27.76;34.75;101419.09;7395239;19;20489;-66
2023/07/09 09:19:37;;;;;;;4.13;3.72;;;;;;;27.88;33.89;101421.75;7395503;19;20015;-67
2023/07/09 09:22:11;;;;;;;5.25;3.63;;;;;;;27.97;32.95;101420.97;7395496;19;20019;-66
2023/07/09 09:24:55;;;;;;;4.50;3.55;;;;;;;28.07;32.61;101413.84;7393677;19;20018;-67
2023/07/09 09:27:23;;;;;;;4.55;3.97;;;;;;;28.19;32.83;101421.84;7396195;19;20098;-66
2023/07/09 09:29:54;;;;;;;5.75;3.58;;;;;;;28.25;32.46;101422.19;7393043;19;20074;-66
2023/07/09 09:32:27;;;;;;;5.80;3.50;;;;;;;28.35;32.39;101426.78;7395397;19;20074;-66
2023/07/09 09:34:57;;;;;;;4.10;3.50;;;;;;;28.43;31.94;101429.66;7393232;19;20015;-66
2023/07/09 09:37:30;;;;;;;5.40;3.78;;;;;;;28.52;31.48;101419.91;7394894;19;20014;-66
2023/07/09 09:39:58;;;;;;;;;;;;;;;28.57;31.19;101413.13;7394291;19;20015;-66
2023/07/09 09:42:27;;;;;;;4.50;3.60;;;;;;;28.65;31.63;101412.44;7394051;19;20334;-66
2023/07/09 09:44:58;;;;;;;5.10;3.47;;;;;;;28.74;30.50;101419.75;7392539;19;20014;-66
2023/07/09 09:47:29;;;;;;;4.00;3.30;;;;;;;28.86;30.07;101419.66;7394695;19;20419;-66
2023/07/09 09:49:57;;;;;;;5.22;3.38;;;;;;;28.96;29.67;101420.53;7393125;19;20018;-66
2023/07/09 09:52:33;;;;;;;4.63;3.53;;;;;;;29.06;29.78;101420.56;7392715;19;20039;-66
2023/07/09 09:55:11;;;;;;;3.53;3.22;;;;;;;29.18;29.43;101421.28;7394839;19;20017;-70
2023/07/09 09:57:40;;;;;;;3.70;3.30;;;;;;;29.25;29.51;101411.66;7402766;19;20424;-67
2023/07/09 10:00:17;;;;;;;5.20;3.58;;;;;;;29.32;29.38;101409.25;7404926;19;20078;-70
2023/07/09 10:02:47;;;;;;;5.70;3.90;;;;;;;29.38;29.30;101414.97;7404416;19;20022;-69
2023/07/09 10:05:17;;;;;;;5.35;3.70;;;;;;;29.47;28.69;101417.81;7401309;19;20026;-69
2023/07/09 10:07:50;;;;;;;4.82;4.28;;;;;;;29.55;29.09;101415.28;7401749;19;20434;-68
2023/07/09 10:10:24;;;;;;;5.53;3.85;;;;;;;29.64;28.85;101409.00;7402756;19;20015;-68
2023/07/09 10:12:55;;;;;;;4.28;3.85;;;;;;;29.73;28.78;101412.69;7401441;19;20077;-70
2023/07/09 10:15:37;;;;;;;5.22;3.67;;;;;;;29.78;28.77;101410.41;7398965;19;20031;-67
2023/07/09 10:18:16;;;;;;;4.65;3.97;;;;;;;29.79;28.77;101408.56;7402306;19;20025;-68
2023/07/09 10:20:51;;;;;;;3.97;3.50;;;;;;;29.86;28.08;101407.00;7401876;19;20513;-67
2023/07/09 10:23:26;;;;;;;4.75;3.90;;;;;;;29.94;28.11;101411.72;7401574;19;20018;-67
2023/07/09 10:26:02;;;;;;;4.63;3.92;;;;;;;30.01;28.15;101410.97;7403133;19;20090;-68
2023/07/09 10:28:56;;;;;;;5.53;3.78;;;;;;;30.05;27.04;101401.59;7402318;19;20086;-67
2023/07/09 10:31:36;;;;;;;5.20;4.20;;;;;;;30.12;27.64;101401.03;7401517;19;20029;-67
2023/07/09 10:34:15;;;;;;;4.70;4.00;;;;;;;30.17;27.60;101399.56;7399235;19;20023;-68
2023/07/09 10:36:56;;;;;;;4.45;3.60;;;;;;;30.22;27.53;101405.38;7401647;19;20536;-68
2023/07/09 10:39:30;;;;;;;6.78;4.45;;;;;;;30.28;27.52;101400.38;7402150;19;20548;-68
2023/07/09 10:42:02;;;;;;;4.95;3.90;;;;;;;30.33;27.42;101395.38;7401013;19;20074;-68
2023/07/09 10:44:36;;;;;;;6.88;4.53;;;;;;;30.41;27.52;101397.34;7398603;19;20017;-68
2023/07/09 10:47:12;;;;;;;4.18;3.35;;;;;;;30.48;27.59;101403.91;7400835;19;20027;-68
2023/07/09 10:49:44;;;;;;;10.70;4.28;;;;;;;30.55;27.06;101402.34;7398064;19;20086;-68
2023/07/09 10:52:23;;;;;;;5.00;3.78;;;;;;;30.63;26.87;101399.72;7400950;19;20070;-68
2023/07/09 10:55:02;;;;;;;6.85;3.90;;;;;;;30.71;27.13;101391.72;7399095;19;20074;-67
2023/07/09 10:57:36;;;;;;;5.55;3.90;;;;;;;30.79;26.44;101392.81;7401776;19;20034;-68
2023/07/09 11:00:06;;;;;;;4.43;3.70;;;;;;;30.88;26.36;101397.31;7402066;19;20090;-68
2023/07/09 11:02:40;;;;;;;4.20;3.55;;;;;;;30.99;26.04;101397.13;7401431;19;20019;-67
2023/07/09 11:05:10;;;;;;;5.03;3.58;;;;;;;31.08;26.52;101392.69;7398850;19;20428;-67
2023/07/09 11:07:43;;;;;;;3.92;3.55;;;;;;;31.16;26.42;101384.63;7398714;19;20018;-68
2023/07/09 11:10:22;;;;;;;5.15;3.72;;;;;;;31.26;26.38;101392.69;7400027;19;20086;-68
2023/07/09 11:12:58;;;;;;;9.40;4.10;;;;;;;31.34;26.10;101390.06;7401064;19;20014;-68
2023/07/09 11:15:32;;;;;;;5.65;3.70;;;;;;;31.44;25.70;101384.53;7399200;19;20083;-68
2023/07/09 11:18:08;;;;;;;3.40;3.10;;;;;;;31.52;26.10;101375.66;7400445;19;20091;-67
2023/07/09 11:20:39;;;;;;;4.53;3.80;;;;;;;31.60;25.71;101367.59;7400499;19;20541;-67
2023/07/09 11:23:19;;;;;;;4.50;3.88;;;;;;;31.68;25.65;101375.84;7400822;19;20090;-68
2023/07/09 11:25:51;;;;;;;5.07;3.85;;;;;;;31.77;25.20;101367.75;7399150;19;20114;-67
2023/07/09 11:28:19;;;;;;;4.95;3.30;;;;;;;31.84;25.07;101366.94;7398308;19;20390;-67
2023/07/09 11:30:50;;;;;;;4.70;3.75;;;;;;;31.92;25.26;101357.16;7398453;19;20007;-67
2023/07/09 11:33:28;;;;;;;6.05;5.40;;;;;;;32.02;24.73;101365.22;7398410;19;20022;-67
2023/07/09 11:36:10;;;;;;;4.50;3.88;;;;;;;32.11;24.58;101356.09;7400525;19;20014;-67
2023/07/09 11:38:43;;;;;;;4.47;3.72;;;;;;;32.22;24.22;101361.28;7402256;19;20082;-70
2023/07/09 11:41:28;;;;;;;4.63;3.40;;;;;;;32.39;24.64;101358.66;7401777;19;20050;-67